sensor_id;sensor_type;location;lat;lon;timestamp;temperature;humidity
76203;DHT22;64985;46.364;17.008;2023-03-08T00:01:19;2.60;99.90
76203;DHT22;64985;46.364;17.008;2023-03-08T00:04:24;2.60;99.90
76203;DHT22;64985;46.364;17.008;2023-03-08T00:07:27;2.60;99.90
76203;DHT22;64985;46.364;17.008;2023-03-08T00:10:30;2.50;99.90
76203;DHT22;64985;46.364;17.008;2023-03-08T00:13:34;2.50;99.90
76203;DHT22;64985;46.364;17.008;2023-03-08T00:16:37;2.40;99.90
76203;DHT22;64985;46.364;17.008;2023-03-08T00:19:40;2.40;99.90
76203;DHT22;64985;46.364;17.008;2023-03-08T00:22:43;2.30;99.90
76203;DHT22;64985;46.364;17.008;2023-03-08T00:25:51;2.20;99.90
76203;DHT22;64985;46.364;17.008;2023-03-08T00:28:54;2.10;99.90
76203;DHT22;64985;46.364;17.008;2023-03-08T00:31:57;2.10;99.90
76203;DHT22;64985;46.364;17.008;2023-03-08T00:35:01;2.10;99.90
76203;DHT22;64985;46.364;17.008;2023-03-08T00:38:04;2.20;99.90
76203;DHT22;64985;46.364;17.008;2023-03-08T00:41:07;2.10;99.90
76203;DHT22;64985;46.364;17.008;2023-03-08T00:44:10;2.10;99.90
76203;DHT22;64985;46.364;17.008;2023-03-08T00:47:14;2.00;99.90
76203;DHT22;64985;46.364;17.008;2023-03-08T00:50:17;2.00;99.90
76203;DHT22;64985;46.364;17.008;2023-03-08T00:53:20;2.00;99.90
76203;DHT22;64985;46.364;17.008;2023-03-08T00:56:24;2.00;99.90
76203;DHT22;64985;46.364;17.008;2023-03-08T00:59:27;2.10;99.90
76203;DHT22;64985;46.364;17.008;2023-03-08T01:02:30;2.20;99.90
76203;DHT22;64985;46.364;17.008;2023-03-08T01:05:38;2.30;99.90
76203;DHT22;64985;46.364;17.008;2023-03-08T01:08:42;2.40;99.90
76203;DHT22;64985;46.364;17.008;2023-03-08T01:11:46;2.40;99.90
76203;DHT22;64985;46.364;17.008;2023-03-08T01:14:49;2.40;99.90
76203;DHT22;64985;46.364;17.008;2023-03-08T01:17:52;2.40;99.90
76203;DHT22;64985;46.364;17.008;2023-03-08T01:21:03;2.40;99.90
76203;DHT22;64985;46.364;17.008;2023-03-08T01:24:06;2.50;99.90
76203;DHT22;64985;46.364;17.008;2023-03-08T01:27:09;2.50;99.90
76203;DHT22;64985;46.364;17.008;2023-03-08T01:30:13;2.40;99.90
76203;DHT22;64985;46.364;17.008;2023-03-08T01:33:16;2.40;99.90
76203;DHT22;64985;46.364;17.008;2023-03-08T01:36:22;2.30;99.90
76203;DHT22;64985;46.364;17.008;2023-03-08T01:39:25;2.30;99.90
76203;DHT22;64985;46.364;17.008;2023-03-08T01:42:28;2.20;99.90
76203;DHT22;64985;46.364;17.008;2023-03-08T01:49:21;2.20;99.90
76203;DHT22;64985;46.364;17.008;2023-03-08T01:52:36;2.20;99.90
76203;DHT22;64985;46.364;17.008;2023-03-08T01:55:41;2.20;99.90
76203;DHT22;64985;46.364;17.008;2023-03-08T01:58:47;2.30;99.90
76203;DHT22;64985;46.364;17.008;2023-03-08T02:01:52;2.40;99.90
76203;DHT22;64985;46.364;17.008;2023-03-08T02:04:55;2.40;99.90
76203;DHT22;64985;46.364;17.008;2023-03-08T02:07:58;2.40;99.90
76203;DHT22;64985;46.364;17.008;2023-03-08T02:11:01;2.40;99.90
76203;DHT22;64985;46.364;17.008;2023-03-08T02:14:04;2.40;99.90
76203;DHT22;64985;46.364;17.008;2023-03-08T02:17:08;2.40;99.90
76203;DHT22;64985;46.364;17.008;2023-03-08T02:20:17;2.50;99.90
76203;DHT22;64985;46.364;17.008;2023-03-08T02:23:24;2.50;99.90
76203;DHT22;64985;46.364;17.008;2023-03-08T02:26:27;2.60;99.90
76203;DHT22;64985;46.364;17.008;2023-03-08T02:29:30;2.60;99.90
76203;DHT22;64985;46.364;17.008;2023-03-08T02:32:34;2.60;99.90
76203;DHT22;64985;46.364;17.008;2023-03-08T02:35:37;2.70;99.90
76203;DHT22;64985;46.364;17.008;2023-03-08T02:38:44;2.70;99.90
76203;DHT22;64985;46.364;17.008;2023-03-08T02:41:47;2.80;99.90
76203;DHT22;64985;46.364;17.008;2023-03-08T02:44:50;2.90;99.90
76203;DHT22;64985;46.364;17.008;2023-03-08T02:47:53;3.00;99.90
76203;DHT22;64985;46.364;17.008;2023-03-08T02:50:56;3.00;99.90
76203;DHT22;64985;46.364;17.008;2023-03-08T02:53:59;3.00;99.90
76203;DHT22;64985;46.364;17.008;2023-03-08T02:57:03;3.00;99.90
76203;DHT22;64985;46.364;17.008;2023-03-08T03:00:07;3.00;99.90
76203;DHT22;64985;46.364;17.008;2023-03-08T03:03:10;3.10;99.90
76203;DHT22;64985;46.364;17.008;2023-03-08T03:06:15;3.10;99.90
76203;DHT22;64985;46.364;17.008;2023-03-08T03:09:18;3.10;99.90
76203;DHT22;64985;46.364;17.008;2023-03-08T03:12:21;3.00;99.90
76203;DHT22;64985;46.364;17.008;2023-03-08T03:15:24;3.00;99.90
76203;DHT22;64985;46.364;17.008;2023-03-08T03:18:27;3.00;99.90
76203;DHT22;64985;46.364;17.008;2023-03-08T03:21:31;3.10;99.90
76203;DHT22;64985;46.364;17.008;2023-03-08T03:24:34;3.10;99.90
76203;DHT22;64985;46.364;17.008;2023-03-08T03:27:39;3.10;99.90
76203;DHT22;64985;46.364;17.008;2023-03-08T03:30:42;3.10;99.90
76203;DHT22;64985;46.364;17.008;2023-03-08T03:33:46;3.10;99.90
76203;DHT22;64985;46.364;17.008;2023-03-08T03:36:49;3.10;99.90
76203;DHT22;64985;46.364;17.008;2023-03-08T03:39:52;3.10;99.90
76203;DHT22;64985;46.364;17.008;2023-03-08T03:42:55;3.10;99.90
76203;DHT22;64985;46.364;17.008;2023-03-08T03:46:00;3.10;99.90
76203;DHT22;64985;46.364;17.008;2023-03-08T03:49:04;3.10;99.90
76203;DHT22;64985;46.364;17.008;2023-03-08T03:52:07;3.10;99.90
76203;DHT22;64985;46.364;17.008;2023-03-08T03:55:10;3.20;99.90
76203;DHT22;64985;46.364;17.008;2023-03-08T03:58:13;3.20;99.90
76203;DHT22;64985;46.364;17.008;2023-03-08T04:01:22;3.20;99.90
76203;DHT22;64985;46.364;17.008;2023-03-08T04:04:28;3.30;99.90
76203;DHT22;64985;46.364;17.008;2023-03-08T04:07:32;3.30;99.90
76203;DHT22;64985;46.364;17.008;2023-03-08T04:10:35;3.60;99.90
76203;DHT22;64985;46.364;17.008;2023-03-08T04:13:39;3.90;99.90
76203;DHT22;64985;46.364;17.008;2023-03-08T04:16:42;3.90;99.90
76203;DHT22;64985;46.364;17.008;2023-03-08T04:19:48;4.00;99.90
76203;DHT22;64985;46.364;17.008;2023-03-08T04:22:52;4.40;99.90
76203;DHT22;64985;46.364;17.008;2023-03-08T04:25:55;5.10;99.90
76203;DHT22;64985;46.364;17.008;2023-03-08T04:28:58;5.70;99.90
76203;DHT22;64985;46.364;17.008;2023-03-08T04:32:02;6.10;99.90
76203;DHT22;64985;46.364;17.008;2023-03-08T04:35:05;6.50;99.90
76203;DHT22;64985;46.364;17.008;2023-03-08T04:38:08;6.80;99.90
76203;DHT22;64985;46.364;17.008;2023-03-08T04:41:12;6.80;99.90
76203;DHT22;64985;46.364;17.008;2023-03-08T04:44:15;6.80;99.90
76203;DHT22;64985;46.364;17.008;2023-03-08T04:47:17;6.90;99.90
76203;DHT22;64985;46.364;17.008;2023-03-08T04:50:21;7.00;99.90
76203;DHT22;64985;46.364;17.008;2023-03-08T04:53:25;7.20;99.90
76203;DHT22;64985;46.364;17.008;2023-03-08T04:56:28;7.10;99.90
76203;DHT22;64985;46.364;17.008;2023-03-08T04:59:31;6.90;99.90
76203;DHT22;64985;46.364;17.008;2023-03-08T05:02:35;6.80;99.90
76203;DHT22;64985;46.364;17.008;2023-03-08T05:05:45;6.60;99.90
76203;DHT22;64985;46.364;17.008;2023-03-08T05:08:48;6.30;99.90
76203;DHT22;64985;46.364;17.008;2023-03-08T05:11:51;5.90;99.90
76203;DHT22;64985;46.364;17.008;2023-03-08T05:14:54;5.80;99.90
76203;DHT22;64985;46.364;17.008;2023-03-08T05:17:58;5.90;99.90
76203;DHT22;64985;46.364;17.008;2023-03-08T05:21:06;5.80;99.90
76203;DHT22;64985;46.364;17.008;2023-03-08T05:24:10;5.50;99.90
76203;DHT22;64985;46.364;17.008;2023-03-08T05:27:13;5.00;99.90
76203;DHT22;64985;46.364;17.008;2023-03-08T05:30:16;4.60;99.90
76203;DHT22;64985;46.364;17.008;2023-03-08T05:33:19;4.30;99.90
76203;DHT22;64985;46.364;17.008;2023-03-08T05:36:22;4.20;99.90
76203;DHT22;64985;46.364;17.008;2023-03-08T05:39:25;4.00;99.90
76203;DHT22;64985;46.364;17.008;2023-03-08T05:42:30;3.80;99.90
76203;DHT22;64985;46.364;17.008;2023-03-08T05:45:34;3.70;99.90
76203;DHT22;64985;46.364;17.008;2023-03-08T05:48:37;3.50;99.90
76203;DHT22;64985;46.364;17.008;2023-03-08T05:51:40;3.40;99.90
76203;DHT22;64985;46.364;17.008;2023-03-08T05:54:44;3.30;99.90
76203;DHT22;64985;46.364;17.008;2023-03-08T05:57:47;3.20;99.90
76203;DHT22;64985;46.364;17.008;2023-03-08T06:00:50;3.10;99.90
76203;DHT22;64985;46.364;17.008;2023-03-08T06:03:56;3.00;99.90
76203;DHT22;64985;46.364;17.008;2023-03-08T06:06:59;2.90;99.90
76203;DHT22;64985;46.364;17.008;2023-03-08T06:10:04;2.80;99.90
76203;DHT22;64985;46.364;17.008;2023-03-08T06:13:07;2.80;99.90
76203;DHT22;64985;46.364;17.008;2023-03-08T06:16:10;2.80;99.90
76203;DHT22;64985;46.364;17.008;2023-03-08T06:19:14;2.90;99.90
76203;DHT22;64985;46.364;17.008;2023-03-08T06:22:17;2.90;99.90
76203;DHT22;64985;46.364;17.008;2023-03-08T06:25:20;3.00;99.90
76203;DHT22;64985;46.364;17.008;2023-03-08T06:28:26;3.10;99.90
76203;DHT22;64985;46.364;17.008;2023-03-08T06:31:30;3.10;99.90
76203;DHT22;64985;46.364;17.008;2023-03-08T06:34:33;3.20;99.90
76203;DHT22;64985;46.364;17.008;2023-03-08T06:37:36;3.30;99.90
76203;DHT22;64985;46.364;17.008;2023-03-08T06:40:39;3.30;99.90
76203;DHT22;64985;46.364;17.008;2023-03-08T06:43:42;3.40;99.90
76203;DHT22;64985;46.364;17.008;2023-03-08T06:46:45;3.60;99.90
76203;DHT22;64985;46.364;17.008;2023-03-08T06:49:49;3.70;99.90
76203;DHT22;64985;46.364;17.008;2023-03-08T06:52:53;3.80;99.90
76203;DHT22;64985;46.364;17.008;2023-03-08T06:55:56;3.90;99.90
76203;DHT22;64985;46.364;17.008;2023-03-08T06:58:59;4.00;99.90
76203;DHT22;64985;46.364;17.008;2023-03-08T07:02:02;4.20;99.90
76203;DHT22;64985;46.364;17.008;2023-03-08T07:05:05;4.40;99.90
76203;DHT22;64985;46.364;17.008;2023-03-08T07:08:08;4.60;99.90
76203;DHT22;64985;46.364;17.008;2023-03-08T07:11:11;4.80;99.90
76203;DHT22;64985;46.364;17.008;2023-03-08T07:14:14;5.00;99.90
76203;DHT22;64985;46.364;17.008;2023-03-08T07:17:18;5.10;99.90
76203;DHT22;64985;46.364;17.008;2023-03-08T07:20:24;5.20;99.90
76203;DHT22;64985;46.364;17.008;2023-03-08T07:23:28;5.40;99.90
76203;DHT22;64985;46.364;17.008;2023-03-08T07:26:31;5.50;99.90
76203;DHT22;64985;46.364;17.008;2023-03-08T07:29:34;5.60;99.90
76203;DHT22;64985;46.364;17.008;2023-03-08T07:32:38;5.70;99.90
76203;DHT22;64985;46.364;17.008;2023-03-08T07:35:49;5.80;99.90
76203;DHT22;64985;46.364;17.008;2023-03-08T07:38:53;5.90;99.90
76203;DHT22;64985;46.364;17.008;2023-03-08T07:41:56;6.00;99.90
76203;DHT22;64985;46.364;17.008;2023-03-08T07:44:59;6.20;99.90
76203;DHT22;64985;46.364;17.008;2023-03-08T07:48:02;6.40;99.90
76203;DHT22;64985;46.364;17.008;2023-03-08T07:51:07;6.50;99.90
76203;DHT22;64985;46.364;17.008;2023-03-08T07:54:12;6.70;99.90
76203;DHT22;64985;46.364;17.008;2023-03-08T07:57:15;6.90;99.90
76203;DHT22;64985;46.364;17.008;2023-03-08T08:00:18;7.10;99.90
76203;DHT22;64985;46.364;17.008;2023-03-08T08:03:22;7.30;99.90
76203;DHT22;64985;46.364;17.008;2023-03-08T08:06:26;7.60;99.90
76203;DHT22;64985;46.364;17.008;2023-03-08T08:09:29;7.90;99.90
76203;DHT22;64985;46.364;17.008;2023-03-08T08:12:33;8.20;99.90
76203;DHT22;64985;46.364;17.008;2023-03-08T08:15:36;8.50;99.90
76203;DHT22;64985;46.364;17.008;2023-03-08T08:18:40;8.80;99.90
76203;DHT22;64985;46.364;17.008;2023-03-08T08:21:43;9.00;99.90
76203;DHT22;64985;46.364;17.008;2023-03-08T08:24:47;9.30;99.90
76203;DHT22;64985;46.364;17.008;2023-03-08T08:27:50;9.90;99.90
76203;DHT22;64985;46.364;17.008;2023-03-08T08:31:06;10.30;99.90
76203;DHT22;64985;46.364;17.008;2023-03-08T08:34:10;10.70;99.20
76203;DHT22;64985;46.364;17.008;2023-03-08T08:37:13;11.20;98.00
76203;DHT22;64985;46.364;17.008;2023-03-08T08:40:16;11.70;94.00
76203;DHT22;64985;46.364;17.008;2023-03-08T08:43:20;11.90;93.30
76203;DHT22;64985;46.364;17.008;2023-03-08T08:46:23;12.00;92.90
76203;DHT22;64985;46.364;17.008;2023-03-08T08:49:26;11.90;92.70
76203;DHT22;64985;46.364;17.008;2023-03-08T08:52:29;11.80;95.70
76203;DHT22;64985;46.364;17.008;2023-03-08T08:55:35;11.80;96.70
76203;DHT22;64985;46.364;17.008;2023-03-08T08:58:40;11.70;95.90
76203;DHT22;64985;46.364;17.008;2023-03-08T09:01:43;11.70;98.00
76203;DHT22;64985;46.364;17.008;2023-03-08T09:04:46;11.70;97.60
76203;DHT22;64985;46.364;17.008;2023-03-08T09:07:53;11.70;97.30
76203;DHT22;64985;46.364;17.008;2023-03-08T09:11:01;11.60;96.50
76203;DHT22;64985;46.364;17.008;2023-03-08T09:14:05;11.80;98.50
76203;DHT22;64985;46.364;17.008;2023-03-08T09:17:09;12.40;96.70
76203;DHT22;64985;46.364;17.008;2023-03-08T09:20:13;12.70;92.90
76203;DHT22;64985;46.364;17.008;2023-03-08T09:23:16;12.70;86.50
76203;DHT22;64985;46.364;17.008;2023-03-08T09:26:19;12.80;92.40
76203;DHT22;64985;46.364;17.008;2023-03-08T09:29:23;12.90;90.40
76203;DHT22;64985;46.364;17.008;2023-03-08T09:32:26;13.00;94.20
76203;DHT22;64985;46.364;17.008;2023-03-08T09:35:29;13.20;85.80
76203;DHT22;64985;46.364;17.008;2023-03-08T09:38:32;13.40;81.80
76203;DHT22;64985;46.364;17.008;2023-03-08T09:41:56;13.70;79.50
76203;DHT22;64985;46.364;17.008;2023-03-08T09:45:11;13.50;76.30
76203;DHT22;64985;46.364;17.008;2023-03-08T09:48:20;13.50;84.20
76203;DHT22;64985;46.364;17.008;2023-03-08T09:51:33;13.60;74.50
76203;DHT22;64985;46.364;17.008;2023-03-08T09:54:37;13.70;71.30
76203;DHT22;64985;46.364;17.008;2023-03-08T09:57:47;13.50;80.30
76203;DHT22;64985;46.364;17.008;2023-03-08T10:00:52;13.30;73.00
76203;DHT22;64985;46.364;17.008;2023-03-08T10:04:25;13.60;71.90
76203;DHT22;64985;46.364;17.008;2023-03-08T10:11:32;13.90;70.80
76203;DHT22;64985;46.364;17.008;2023-03-08T10:14:42;13.90;83.90
76203;DHT22;64985;46.364;17.008;2023-03-08T10:17:48;13.50;68.00
76203;DHT22;64985;46.364;17.008;2023-03-08T10:20:57;13.50;75.20
76203;DHT22;64985;46.364;17.008;2023-03-08T10:24:29;13.60;82.30
76203;DHT22;64985;46.364;17.008;2023-03-08T10:27:36;13.80;82.00
76203;DHT22;64985;46.364;17.008;2023-03-08T10:30:45;13.70;74.70
76203;DHT22;64985;46.364;17.008;2023-03-08T10:34:03;13.50;74.50
76203;DHT22;64985;46.364;17.008;2023-03-08T10:37:09;13.50;74.00
76203;DHT22;64985;46.364;17.008;2023-03-08T10:40:19;13.60;74.00
76203;DHT22;64985;46.364;17.008;2023-03-08T10:43:35;13.30;74.80
76203;DHT22;64985;46.364;17.008;2023-03-08T10:46:49;13.20;81.30
76203;DHT22;64985;46.364;17.008;2023-03-08T10:50:12;13.30;75.90
76203;DHT22;64985;46.364;17.008;2023-03-08T10:53:18;13.40;83.20
76203;DHT22;64985;46.364;17.008;2023-03-08T10:56:38;13.40;73.40
76203;DHT22;64985;46.364;17.008;2023-03-08T10:59:48;13.60;76.80
76203;DHT22;64985;46.364;17.008;2023-03-08T11:03:02;13.60;84.00
76203;DHT22;64985;46.364;17.008;2023-03-08T11:06:15;13.60;76.70
76203;DHT22;64985;46.364;17.008;2023-03-08T11:09:28;13.70;81.10
76203;DHT22;64985;46.364;17.008;2023-03-08T11:12:31;13.70;80.30
76203;DHT22;64985;46.364;17.008;2023-03-08T11:15:37;13.60;78.60
76203;DHT22;64985;46.364;17.008;2023-03-08T11:29:03;14.20;66.10
76203;DHT22;64985;46.364;17.008;2023-03-08T11:32:31;14.00;68.90
76203;DHT22;64985;46.364;17.008;2023-03-08T11:38:51;14.90;66.40
76203;DHT22;64985;46.364;17.008;2023-03-08T11:41:58;15.10;56.70
76203;DHT22;64985;46.364;17.008;2023-03-08T11:45:09;14.80;56.10
76203;DHT22;64985;46.364;17.008;2023-03-08T11:48:30;15.10;59.50
76203;DHT22;64985;46.364;17.008;2023-03-08T11:58:43;14.90;56.20
76203;DHT22;64985;46.364;17.008;2023-03-08T12:02:21;15.20;55.40
76203;DHT22;64985;46.364;17.008;2023-03-08T12:05:29;14.90;54.30
76203;DHT22;64985;46.364;17.008;2023-03-08T12:08:47;14.60;56.10
76203;DHT22;64985;46.364;17.008;2023-03-08T12:12:05;14.50;56.30
76203;DHT22;64985;46.364;17.008;2023-03-08T12:22:19;14.00;54.90
76203;DHT22;64985;46.364;17.008;2023-03-08T12:25:30;14.10;56.10
76203;DHT22;64985;46.364;17.008;2023-03-08T12:28:42;14.60;55.70
76203;DHT22;64985;46.364;17.008;2023-03-08T12:31:46;14.80;55.40
76203;DHT22;64985;46.364;17.008;2023-03-08T12:35:04;15.20;53.30
76203;DHT22;64985;46.364;17.008;2023-03-08T12:41:27;14.70;54.60
76203;DHT22;64985;46.364;17.008;2023-03-08T12:44:30;14.60;54.00
76203;DHT22;64985;46.364;17.008;2023-03-08T12:47:33;14.70;52.70
76203;DHT22;64985;46.364;17.008;2023-03-08T12:50:43;15.40;52.10
76203;DHT22;64985;46.364;17.008;2023-03-08T12:56:54;15.00;52.20
76203;DHT22;64985;46.364;17.008;2023-03-08T13:00:05;15.00;52.80
76203;DHT22;64985;46.364;17.008;2023-03-08T13:09:32;15.20;50.00
76203;DHT22;64985;46.364;17.008;2023-03-08T13:13:00;15.00;49.10
76203;DHT22;64985;46.364;17.008;2023-03-08T13:16:28;15.20;50.00
76203;DHT22;64985;46.364;17.008;2023-03-08T13:19:32;16.00;47.60
76203;DHT22;64985;46.364;17.008;2023-03-08T13:26:48;16.70;48.40
76203;DHT22;64985;46.364;17.008;2023-03-08T13:29:33;16.30;49.10
76203;DHT22;64985;46.364;17.008;2023-03-08T13:32:38;15.80;48.00
76203;DHT22;64985;46.364;17.008;2023-03-08T13:35:41;15.90;46.10
76203;DHT22;64985;46.364;17.008;2023-03-08T13:38:54;15.60;47.70
76203;DHT22;64985;46.364;17.008;2023-03-08T13:42:05;15.30;48.30
76203;DHT22;64985;46.364;17.008;2023-03-08T13:45:16;15.20;47.30
76203;DHT22;64985;46.364;17.008;2023-03-08T13:48:20;15.20;47.20
76203;DHT22;64985;46.364;17.008;2023-03-08T13:51:26;15.40;46.60
76203;DHT22;64985;46.364;17.008;2023-03-08T13:54:35;15.40;47.20
76203;DHT22;64985;46.364;17.008;2023-03-08T13:57:39;15.20;48.20
76203;DHT22;64985;46.364;17.008;2023-03-08T14:00:43;15.10;48.80
76203;DHT22;64985;46.364;17.008;2023-03-08T14:03:50;15.50;48.00
76203;DHT22;64985;46.364;17.008;2023-03-08T14:06:56;15.30;47.70
76203;DHT22;64985;46.364;17.008;2023-03-08T14:10:00;15.10;47.70
76203;DHT22;64985;46.364;17.008;2023-03-08T14:13:04;14.90;47.60
76203;DHT22;64985;46.364;17.008;2023-03-08T14:16:28;14.90;48.40
76203;DHT22;64985;46.364;17.008;2023-03-08T14:19:38;14.90;47.10
76203;DHT22;64985;46.364;17.008;2023-03-08T14:22:46;14.90;48.20
76203;DHT22;64985;46.364;17.008;2023-03-08T14:25:56;14.90;49.30
76203;DHT22;64985;46.364;17.008;2023-03-08T14:29:24;14.80;48.50
76203;DHT22;64985;46.364;17.008;2023-03-08T14:32:30;14.80;49.30
76203;DHT22;64985;46.364;17.008;2023-03-08T14:35:39;14.90;50.00
76203;DHT22;64985;46.364;17.008;2023-03-08T14:38:47;14.80;47.00
76203;DHT22;64985;46.364;17.008;2023-03-08T14:41:51;14.90;47.60
76203;DHT22;64985;46.364;17.008;2023-03-08T14:45:00;15.00;48.50
76203;DHT22;64985;46.364;17.008;2023-03-08T14:48:31;15.10;47.80
76203;DHT22;64985;46.364;17.008;2023-03-08T14:51:40;15.10;48.70
76203;DHT22;64985;46.364;17.008;2023-03-08T14:54:43;15.00;49.80
76203;DHT22;64985;46.364;17.008;2023-03-08T14:57:46;15.00;49.10
76203;DHT22;64985;46.364;17.008;2023-03-08T15:00:55;14.90;50.90
76203;DHT22;64985;46.364;17.008;2023-03-08T15:03:59;14.90;50.60
76203;DHT22;64985;46.364;17.008;2023-03-08T15:07:03;14.90;53.60
76203;DHT22;64985;46.364;17.008;2023-03-08T15:10:08;14.90;53.80
76203;DHT22;64985;46.364;17.008;2023-03-08T15:13:19;14.80;53.70
76203;DHT22;64985;46.364;17.008;2023-03-08T15:16:22;14.70;54.00
76203;DHT22;64985;46.364;17.008;2023-03-08T15:19:26;14.70;53.70
76203;DHT22;64985;46.364;17.008;2023-03-08T15:22:29;14.80;52.50
76203;DHT22;64985;46.364;17.008;2023-03-08T15:25:36;15.30;50.00
76203;DHT22;64985;46.364;17.008;2023-03-08T15:28:39;15.40;50.30
76203;DHT22;64985;46.364;17.008;2023-03-08T15:31:42;15.60;48.60
76203;DHT22;64985;46.364;17.008;2023-03-08T15:34:45;15.80;48.40
76203;DHT22;64985;46.364;17.008;2023-03-08T15:37:49;15.80;48.10
76203;DHT22;64985;46.364;17.008;2023-03-08T15:40:53;15.40;50.30
76203;DHT22;64985;46.364;17.008;2023-03-08T15:43:56;15.30;49.60
76203;DHT22;64985;46.364;17.008;2023-03-08T15:46:59;14.90;51.90
76203;DHT22;64985;46.364;17.008;2023-03-08T15:50:05;14.70;52.50
76203;DHT22;64985;46.364;17.008;2023-03-08T15:53:09;14.50;51.50
76203;DHT22;64985;46.364;17.008;2023-03-08T15:56:19;14.30;53.00
76203;DHT22;64985;46.364;17.008;2023-03-08T15:59:24;14.30;53.10
76203;DHT22;64985;46.364;17.008;2023-03-08T16:02:27;14.30;54.30
76203;DHT22;64985;46.364;17.008;2023-03-08T16:05:30;14.30;53.40
76203;DHT22;64985;46.364;17.008;2023-03-08T16:08:33;14.20;53.90
76203;DHT22;64985;46.364;17.008;2023-03-08T16:11:37;14.20;54.50
76203;DHT22;64985;46.364;17.008;2023-03-08T16:14:45;14.10;54.10
76203;DHT22;64985;46.364;17.008;2023-03-08T16:17:49;14.00;56.30
76203;DHT22;64985;46.364;17.008;2023-03-08T16:20:53;14.00;55.80
76203;DHT22;64985;46.364;17.008;2023-03-08T16:23:56;13.90;58.50
76203;DHT22;64985;46.364;17.008;2023-03-08T16:26:59;13.80;58.80
76203;DHT22;64985;46.364;17.008;2023-03-08T16:30:02;13.60;60.90
76203;DHT22;64985;46.364;17.008;2023-03-08T16:33:05;13.60;61.80
76203;DHT22;64985;46.364;17.008;2023-03-08T16:36:10;13.60;62.00
76203;DHT22;64985;46.364;17.008;2023-03-08T16:39:13;13.40;63.90
76203;DHT22;64985;46.364;17.008;2023-03-08T16:42:18;13.40;65.40
76203;DHT22;64985;46.364;17.008;2023-03-08T16:45:21;13.40;65.70
76203;DHT22;64985;46.364;17.008;2023-03-08T16:48:26;13.30;67.40
76203;DHT22;64985;46.364;17.008;2023-03-08T16:51:29;13.30;67.90
76203;DHT22;64985;46.364;17.008;2023-03-08T16:54:32;13.20;69.20
76203;DHT22;64985;46.364;17.008;2023-03-08T16:57:36;13.20;70.60
76203;DHT22;64985;46.364;17.008;2023-03-08T17:00:40;13.10;70.90
76203;DHT22;64985;46.364;17.008;2023-03-08T17:03:43;13.10;71.40
76203;DHT22;64985;46.364;17.008;2023-03-08T17:06:47;13.20;71.90
76203;DHT22;64985;46.364;17.008;2023-03-08T17:09:50;13.10;71.10
76203;DHT22;64985;46.364;17.008;2023-03-08T17:12:54;13.00;74.80
76203;DHT22;64985;46.364;17.008;2023-03-08T17:15:57;13.00;73.80
76203;DHT22;64985;46.364;17.008;2023-03-08T17:19:02;13.00;74.60
76203;DHT22;64985;46.364;17.008;2023-03-08T17:22:07;13.00;76.00
76203;DHT22;64985;46.364;17.008;2023-03-08T17:25:10;12.80;76.90
76203;DHT22;64985;46.364;17.008;2023-03-08T17:28:13;12.90;79.30
76203;DHT22;64985;46.364;17.008;2023-03-08T17:31:19;12.80;79.00
76203;DHT22;64985;46.364;17.008;2023-03-08T17:34:23;12.70;78.80
76203;DHT22;64985;46.364;17.008;2023-03-08T17:37:27;12.60;82.30
76203;DHT22;64985;46.364;17.008;2023-03-08T17:40:30;12.80;78.00
76203;DHT22;64985;46.364;17.008;2023-03-08T17:43:34;12.70;80.40
76203;DHT22;64985;46.364;17.008;2023-03-08T17:46:38;12.70;81.20
76203;DHT22;64985;46.364;17.008;2023-03-08T17:49:42;12.60;80.80
76203;DHT22;64985;46.364;17.008;2023-03-08T17:52:46;12.60;84.10
76203;DHT22;64985;46.364;17.008;2023-03-08T17:55:49;12.70;80.90
76203;DHT22;64985;46.364;17.008;2023-03-08T17:58:54;12.70;80.00
76203;DHT22;64985;46.364;17.008;2023-03-08T18:01:58;12.60;83.00
76203;DHT22;64985;46.364;17.008;2023-03-08T18:05:01;12.60;81.10
76203;DHT22;64985;46.364;17.008;2023-03-08T18:08:05;12.60;83.70
76203;DHT22;64985;46.364;17.008;2023-03-08T18:11:11;12.40;85.70
76203;DHT22;64985;46.364;17.008;2023-03-08T18:14:15;12.40;86.00
76203;DHT22;64985;46.364;17.008;2023-03-08T18:17:19;12.30;89.90
76203;DHT22;64985;46.364;17.008;2023-03-08T18:20:23;12.40;88.00
76203;DHT22;64985;46.364;17.008;2023-03-08T18:23:28;12.40;90.30
76203;DHT22;64985;46.364;17.008;2023-03-08T18:26:35;12.40;86.00
76203;DHT22;64985;46.364;17.008;2023-03-08T18:29:39;12.60;88.30
76203;DHT22;64985;46.364;17.008;2023-03-08T18:32:42;12.50;86.60
76203;DHT22;64985;46.364;17.008;2023-03-08T18:35:55;12.50;87.90
76203;DHT22;64985;46.364;17.008;2023-03-08T18:38:59;12.50;86.00
76203;DHT22;64985;46.364;17.008;2023-03-08T18:42:05;12.40;88.20
76203;DHT22;64985;46.364;17.008;2023-03-08T18:45:10;12.40;89.20
76203;DHT22;64985;46.364;17.008;2023-03-08T18:48:14;12.30;90.30
76203;DHT22;64985;46.364;17.008;2023-03-08T18:51:17;12.20;92.10
76203;DHT22;64985;46.364;17.008;2023-03-08T18:54:22;12.20;91.80
76203;DHT22;64985;46.364;17.008;2023-03-08T18:57:26;12.20;90.60
76203;DHT22;64985;46.364;17.008;2023-03-08T19:00:30;12.30;88.60
76203;DHT22;64985;46.364;17.008;2023-03-08T19:03:34;12.20;91.70
76203;DHT22;64985;46.364;17.008;2023-03-08T19:06:38;12.10;92.20
76203;DHT22;64985;46.364;17.008;2023-03-08T19:09:43;12.00;92.50
76203;DHT22;64985;46.364;17.008;2023-03-08T19:12:51;11.90;92.20
76203;DHT22;64985;46.364;17.008;2023-03-08T19:15:55;11.90;92.10
76203;DHT22;64985;46.364;17.008;2023-03-08T19:19:09;11.90;92.90
76203;DHT22;64985;46.364;17.008;2023-03-08T19:22:13;11.90;92.90
76203;DHT22;64985;46.364;17.008;2023-03-08T19:25:17;11.90;92.70
76203;DHT22;64985;46.364;17.008;2023-03-08T19:28:22;11.90;92.80
76203;DHT22;64985;46.364;17.008;2023-03-08T19:31:28;11.80;93.30
76203;DHT22;64985;46.364;17.008;2023-03-08T19:34:35;11.90;91.60
76203;DHT22;64985;46.364;17.008;2023-03-08T19:37:40;11.90;92.70
76203;DHT22;64985;46.364;17.008;2023-03-08T19:40:45;11.70;93.70
76203;DHT22;64985;46.364;17.008;2023-03-08T19:43:49;11.70;93.50
76203;DHT22;64985;46.364;17.008;2023-03-08T19:46:54;11.60;92.90
76203;DHT22;64985;46.364;17.008;2023-03-08T19:49:58;11.70;92.80
76203;DHT22;64985;46.364;17.008;2023-03-08T19:53:03;11.70;93.50
76203;DHT22;64985;46.364;17.008;2023-03-08T19:56:17;11.80;92.80
76203;DHT22;64985;46.364;17.008;2023-03-08T19:59:22;11.70;93.20
76203;DHT22;64985;46.364;17.008;2023-03-08T20:02:28;11.60;93.60
76203;DHT22;64985;46.364;17.008;2023-03-08T20:05:32;11.50;93.90
76203;DHT22;64985;46.364;17.008;2023-03-08T20:08:42;11.40;94.30
76203;DHT22;64985;46.364;17.008;2023-03-08T20:11:46;11.30;95.50
76203;DHT22;64985;46.364;17.008;2023-03-08T20:14:58;11.20;94.90